Terminal Aerodrome Forecast
Issued by NWS Duluth, MN

Home | Current Version | Previous Version | Text Only | Print | Product List | Glossary On
Versions: 1 2 3 4 5 6 7 8 9 10 11 12 13 14 15 16 17 18 19 20 21 22 23 24 25
000
FTUS43 KDLH 282341
TAFDLH
TAF
KDLH 282341Z 2900/2924 07012KT 2SM -RA BR VCTS BKN002 OVC015CB
      TEMPO 2900/2901 3/4SM -TSRA BR BKN002 OVC015CB
     FM290100 06005KT 1SM -RA BR OVC002
     FM290600 33004KT 1SM -RA BR OVC003
     FM291000 31009KT 3SM BR VCSH BKN003
     FM291400 33011KT P6SM BKN008
     FM291800 35012G18KT P6SM BKN015
     FM292200 04009KT P6SM BKN025=

USA.gov is the U.S. government's official web portal to all federal, state and local government web resources and services.